Pai Eterno — CUDG7 — position and weather

sailwx.info

Track history (hours):
 
Tides and Currents Weather Stations Pressure Air Temp Water Temp Dewpoint Dewpoint Depression Visibility Wind Speed Wind Dir Waves Ship Positions

Pai Eterno

Last reported at 2017-Nov-10 09:18 UTC. Time now 2017-Nov-20 17:35 UTC.
Position N 41°13' W 008°44'.
Warning: this ship's position is 10 days out of date.

Length 21 m.

Type: Fishing. MMSI: 204258000.

Date/timePositionNaut miles runAvg speedWind from/ knotsBaromVisibWave heightAir tempDewpointWater temp
2017-Nov-10 09:18N 41°13' W 008°44'3 8.4
2017-Nov-10 09:00N 41°11' W 008°42'  
2017-Nov-07 10:32N 41°11' W 008°42'0 0.0
2017-Nov-07 10:30N 41°11' W 008°42'0 0.0
2017-Nov-07 10:01N 41°11' W 008°42'0 0.0
2017-Nov-07 09:30N 41°11' W 008°42'0 0.0
2017-Nov-07 09:01N 41°11' W 008°42'0 0.0
2017-Nov-07 08:31N 41°11' W 008°42'0 0.0
2017-Nov-07 08:00N 41°11' W 008°42'0 0.9
2017-Nov-07 07:31N 41°11' W 008°42'3 0.1
2017-Nov-06 00:06N 41°08' W 008°42'110.4
2017-Nov-06 00:00N 41°09' W 008°42'2 3.9
2017-Nov-05 23:30N 41°11' W 008°42'  
2017-Nov-03 09:54N 41°11' W 008°42'0 0.1
2017-Nov-03 09:30N 41°11' W 008°42'0 0.0
2017-Nov-03 09:00N 41°11' W 008°42'0 0.0
2017-Nov-03 08:31N 41°11' W 008°42'0 0.0
2017-Nov-03 08:00N 41°11' W 008°42'2 3.6
2017-Nov-03 07:30N 41°09' W 008°43'1 0.2
2017-Nov-02 22:11N 41°08' W 008°43'2 9.0
2017-Nov-02 22:01N 41°09' W 008°42'2 0.2
2017-Nov-02 11:46N 41°11' W 008°42'0 0.0
2017-Nov-02 11:30N 41°11' W 008°42'0 0.3
2017-Nov-02 11:00N 41°11' W 008°42'0 0.1
2017-Nov-02 09:05N 41°11' W 008°42'0 1.8
2017-Nov-02 09:01N 41°11' W 008°42'510.4
2017-Nov-02 08:31N 41°06' W 008°43'2 0.2
2017-Nov-01 23:12N 41°08' W 008°43'210.1
2017-Nov-01 23:00N 41°10' W 008°42'1 0.0
2017-Oct-31 09:38N 41°11' W 008°42'0 0.0
2017-Oct-31 09:30N 41°11' W 008°42'  
Track history (hours):
 
Tides and Currents Weather Stations Pressure Air Temp Water Temp Dewpoint Dewpoint Depression Visibility Wind Speed Wind Dir Waves Ship Positions

Pai Eterno

Last reported at 2017-Nov-10 09:18 UTC. Time now 2017-Nov-20 17:35 UTC.
Position N 41°13' W 008°44'.
Warning: this ship's position is 10 days out of date.

Length 21 m.

Type: Fishing. MMSI: 204258000.

Date/timePositionNaut miles runAvg speedWind from/ knotsBaromVisibWave heightAir tempDewpointWater temp
2017-Nov-10 09:18N 41°13' W 008°44'3 8.4
2017-Nov-10 09:00N 41°11' W 008°42'  
2017-Nov-07 10:32N 41°11' W 008°42'0 0.0
2017-Nov-07 10:30N 41°11' W 008°42'0 0.0
2017-Nov-07 10:01N 41°11' W 008°42'0 0.0
2017-Nov-07 09:30N 41°11' W 008°42'0 0.0
2017-Nov-07 09:01N 41°11' W 008°42'0 0.0
2017-Nov-07 08:31N 41°11' W 008°42'0 0.0
2017-Nov-07 08:00N 41°11' W 008°42'0 0.9
2017-Nov-07 07:31N 41°11' W 008°42'3 0.1
2017-Nov-06 00:06N 41°08' W 008°42'110.4
2017-Nov-06 00:00N 41°09' W 008°42'2 3.9
2017-Nov-05 23:30N 41°11' W 008°42'  
2017-Nov-03 09:54N 41°11' W 008°42'0 0.1
2017-Nov-03 09:30N 41°11' W 008°42'0 0.0
2017-Nov-03 09:00N 41°11' W 008°42'0 0.0
2017-Nov-03 08:31N 41°11' W 008°42'0 0.0
2017-Nov-03 08:00N 41°11' W 008°42'2 3.6
2017-Nov-03 07:30N 41°09' W 008°43'1 0.2
2017-Nov-02 22:11N 41°08' W 008°43'2 9.0
2017-Nov-02 22:01N 41°09' W 008°42'2 0.2
2017-Nov-02 11:46N 41°11' W 008°42'0 0.0
2017-Nov-02 11:30N 41°11' W 008°42'0 0.3
2017-Nov-02 11:00N 41°11' W 008°42'0 0.1
2017-Nov-02 09:05N 41°11' W 008°42'0 1.8
2017-Nov-02 09:01N 41°11' W 008°42'510.4
2017-Nov-02 08:31N 41°06' W 008°43'2 0.2
2017-Nov-01 23:12N 41°08' W 008°43'210.1
2017-Nov-01 23:00N 41°10' W 008°42'1 0.0
2017-Oct-31 09:38N 41°11' W 008°42'0 0.0
2017-Oct-31 09:30N 41°11' W 008°42'  

Dump ship's entire track history